CheckWX is a tool to help pilots better visualize weather data.  It is not intended as a substitute for an official pre-flight weather briefing.

03:35:51 UTC

EGKA METAR
Shoreham Airport
Brighton, United Kingdom
Current

9 hours ago

EGKA 181850Z 36019KT 9999 FEW045 17/16 Q1010
Observed
Jun-18 @ 18:50 UTC
Wind
  • 360° at 19 KTS
Visibility
10,000+ meters
Flight Rules
VFR
Cloud Levels
  • Few at 4,500' AGL
Temperature
17°C / 63°F
Dewpoint
16°C / 61°F
Humidity
94%
Altimeter
29.82" Hg
Pressure
1009.92 hPa
Previous

9 hours ago

EGKA 181820Z 36009KT 9999 FEW045 17/16 Q1010
Observed
Jun-18 @ 18:20 UTC
Wind
  • 360° at 9 KTS
Visibility
10,000+ meters
Flight Rules
VFR
Cloud Levels
  • Few at 4,500' AGL
Temperature
17°C / 63°F
Dewpoint
16°C / 61°F
Humidity
94%
Altimeter
29.82" Hg
Pressure
1009.92 hPa
Previous

10 hours ago

EGKA 181750Z 35010KT 9999 FEW045 17/16 Q1010
Observed
Jun-18 @ 17:50 UTC
Wind
  • 350° at 10 KTS
Visibility
10,000+ meters
Flight Rules
VFR
Cloud Levels
  • Few at 4,500' AGL
Temperature
17°C / 63°F
Dewpoint
16°C / 61°F
Humidity
94%
Altimeter
29.82" Hg
Pressure
1009.92 hPa